Potawatomi Indian Reservatio, Wisconsin
Current Conditions -  °F | °C
As of 11:53 PM on Friday 19 Dec 2014 (Local Time) from KASX Reporting Station
Overcast Overcast  
Wind Chill: 21°   Ceiling: 2500
Heat Index: 26°   Visibility: 10mi
Dew Point: 22°   Wind: 5mph
Humidity: 84%   Direction: 190°S
Pressure: 30.2"   Gusts: NA
Location:  46.543°N, 90.8706°W
Report Text: KASX 200553Z AUTO 19004KT 10SM OVC025 M03/M06 A3020 RMK AO2 SLP240 T10331056 11033 21039 410331061 56007
Loading
Personal Weather Stations






























Interactive Weather Map New forecast layout! Learn more

10-Day Weather Forecast

Advertisements
Track Severe Weather on mobile